Aérodrome :
LOGIN :

S'inscrire | Disclaimer

   EN    FR    IT 

 










Légende :    VFR   VFR Marginal   IFR   IFR Intensif   IFR Très Intensif
Visi : 
Plafond : 
>= 8 km
>= 3000ft
5 à 8 km
1000 à 3000 ft
1500m à 5 km
500 à 1000 ft
800 à 1500m
200 à 500 ft
< 800m
< 200 ft
Symboles :   Orages  Brouillard  Fortes neiges  Fortes précipitations  Vent > 20 kt
SIGMETs :   Divers  Orages  Givrage  Turbulence  Onde Orograph.  Cendres Volcan.






- Altitude de l'aérodrome : 1742 ft
- Code IATA : SOF


LBSF - Sofia Int.

DERNIER METAR :
  • 071400Z 04012KT 360V070 CAVOK 13/M06 Q1029 NOSIG

METARs EXPIRÉS :
  • 071330Z 06016KT 030V090 CAVOK 13/M07 Q1030 NOSIG
  • 071300Z 04012G22KT 350V080 CAVOK 13/M06 Q1030 NOSIG
  • 071230Z 09010G23KT 040V130 CAVOK 13/M07 Q1030 NOSIG
  • 071200Z 07012KT 010V110 CAVOK 13/M07 Q1031 NOSIG
  • 071130Z 05008KT 350V100 CAVOK 13/M05 Q1031 NOSIG

TAF TAF LBSF
Valide du 07 à 12h jusqu'au 08 à 12h UTC


071100Z 0712/0812 06016KT CAVOK
BECMG 0718/0720 VRB04KT
BECMG 0808/0810 08012KT



MET'MAP, la Météo Aéronautique d'un coup d'oeil ! - Copyright ORBIFLY Décembre 2007 - Disclaimer

ORBIFLY MET'MAP TEAM :

Programmation & Développement : Alexandra Zaïnal
Sur une idée originale de : Baudouin d'Aumeries
Assistance à la programmation : Marc-Olivier Méhu
Soutien technique & logistique : Manuel Goepfert

Contact : metmap@orbifly.com




SOURCES & CREDITS :

   NOAA